sensor_id;sensor_type;location;lat;lon;timestamp;P1;durP1;ratioP1;P2;durP2;ratioP2
7833;SDS011;3962;42.696;23.354;2023-02-16T00:03:33;186.53;;;86.00;;
7833;SDS011;3962;42.696;23.354;2023-02-16T00:09:23;186.73;;;83.23;;
7833;SDS011;3962;42.696;23.354;2023-02-16T00:11:51;187.00;;;81.23;;
7833;SDS011;3962;42.696;23.354;2023-02-16T00:14:39;188.23;;;83.70;;
7833;SDS011;3962;42.696;23.354;2023-02-16T00:20:04;175.40;;;79.33;;
7833;SDS011;3962;42.696;23.354;2023-02-16T00:22:33;170.47;;;77.60;;
7833;SDS011;3962;42.696;23.354;2023-02-16T00:28:24;191.33;;;86.93;;
7833;SDS011;3962;42.696;23.354;2023-02-16T00:30:52;176.97;;;83.57;;
7833;SDS011;3962;42.696;23.354;2023-02-16T00:33:19;177.23;;;81.00;;
7833;SDS011;3962;42.696;23.354;2023-02-16T00:35:48;168.33;;;80.10;;
7833;SDS011;3962;42.696;23.354;2023-02-16T00:41:04;176.40;;;82.87;;
7833;SDS011;3962;42.696;23.354;2023-02-16T00:46:22;164.97;;;75.00;;
7833;SDS011;3962;42.696;23.354;2023-02-16T00:51:31;166.93;;;74.73;;
7833;SDS011;3962;42.696;23.354;2023-02-16T00:54:01;178.20;;;80.30;;
7833;SDS011;3962;42.696;23.354;2023-02-16T00:56:29;167.13;;;75.53;;
7833;SDS011;3962;42.696;23.354;2023-02-16T00:58:57;161.17;;;74.43;;
7833;SDS011;3962;42.696;23.354;2023-02-16T01:04:02;161.43;;;75.70;;
7833;SDS011;3962;42.696;23.354;2023-02-16T01:06:34;157.90;;;70.93;;
7833;SDS011;3962;42.696;23.354;2023-02-16T01:09:23;170.60;;;74.23;;
7833;SDS011;3962;42.696;23.354;2023-02-16T01:17:29;160.83;;;71.57;;
7833;SDS011;3962;42.696;23.354;2023-02-16T01:20:15;154.17;;;70.13;;
7833;SDS011;3962;42.696;23.354;2023-02-16T01:23:03;150.37;;;71.80;;
7833;SDS011;3962;42.696;23.354;2023-02-16T01:25:31;163.67;;;75.30;;
7833;SDS011;3962;42.696;23.354;2023-02-16T01:27:59;163.50;;;75.07;;
7833;SDS011;3962;42.696;23.354;2023-02-16T01:30:27;165.17;;;75.83;;
7833;SDS011;3962;42.696;23.354;2023-02-16T01:33:07;158.37;;;71.10;;
7833;SDS011;3962;42.696;23.354;2023-02-16T01:35:40;148.20;;;68.40;;
7833;SDS011;3962;42.696;23.354;2023-02-16T01:38:18;152.23;;;70.67;;
7833;SDS011;3962;42.696;23.354;2023-02-16T01:40:59;160.30;;;70.20;;
7833;SDS011;3962;42.696;23.354;2023-02-16T01:43:41;161.57;;;71.80;;
7833;SDS011;3962;42.696;23.354;2023-02-16T01:46:24;155.20;;;70.03;;
7833;SDS011;3962;42.696;23.354;2023-02-16T01:49:16;144.23;;;70.40;;
7833;SDS011;3962;42.696;23.354;2023-02-16T01:51:55;160.97;;;75.17;;
7833;SDS011;3962;42.696;23.354;2023-02-16T01:54:31;176.53;;;78.50;;
7833;SDS011;3962;42.696;23.354;2023-02-16T01:57:05;158.83;;;74.57;;
7833;SDS011;3962;42.696;23.354;2023-02-16T01:59:40;161.33;;;73.97;;
7833;SDS011;3962;42.696;23.354;2023-02-16T02:02:42;184.87;;;81.07;;
7833;SDS011;3962;42.696;23.354;2023-02-16T02:08:21;210.70;;;90.70;;
7833;SDS011;3962;42.696;23.354;2023-02-16T02:10:59;244.20;;;107.77;;
7833;SDS011;3962;42.696;23.354;2023-02-16T02:16:37;212.97;;;96.00;;
7833;SDS011;3962;42.696;23.354;2023-02-16T02:19:08;208.03;;;95.37;;
7833;SDS011;3962;42.696;23.354;2023-02-16T02:21:45;197.83;;;88.20;;
7833;SDS011;3962;42.696;23.354;2023-02-16T02:34:19;161.70;;;73.67;;
7833;SDS011;3962;42.696;23.354;2023-02-16T02:36:58;140.77;;;67.40;;
7833;SDS011;3962;42.696;23.354;2023-02-16T02:39:33;156.13;;;71.60;;
7833;SDS011;3962;42.696;23.354;2023-02-16T02:42:12;133.23;;;62.70;;
7833;SDS011;3962;42.696;23.354;2023-02-16T02:53:07;144.20;;;63.80;;
7833;SDS011;3962;42.696;23.354;2023-02-16T02:55:43;154.00;;;72.83;;
7833;SDS011;3962;42.696;23.354;2023-02-16T03:10:26;177.52;;;80.30;;
7833;SDS011;3962;42.696;23.354;2023-02-16T03:13:13;194.07;;;85.07;;
7833;SDS011;3962;42.696;23.354;2023-02-16T03:21:41;221.27;;;98.27;;
7833;SDS011;3962;42.696;23.354;2023-02-16T03:24:32;210.13;;;92.85;;
7833;SDS011;3962;42.696;23.354;2023-02-16T03:30:36;204.80;;;94.13;;
7833;SDS011;3962;42.696;23.354;2023-02-16T03:33:12;171.02;;;80.82;;
7833;SDS011;3962;42.696;23.354;2023-02-16T03:35:44;184.80;;;85.72;;
7833;SDS011;3962;42.696;23.354;2023-02-16T03:38:13;188.57;;;87.37;;
7833;SDS011;3962;42.696;23.354;2023-02-16T03:40:40;222.73;;;101.97;;
7833;SDS011;3962;42.696;23.354;2023-02-16T03:43:16;192.43;;;89.53;;
7833;SDS011;3962;42.696;23.354;2023-02-16T03:48:28;197.07;;;91.37;;
7833;SDS011;3962;42.696;23.354;2023-02-16T03:50:57;185.88;;;84.97;;
7833;SDS011;3962;42.696;23.354;2023-02-16T03:53:39;183.60;;;84.68;;
7833;SDS011;3962;42.696;23.354;2023-02-16T03:56:07;162.10;;;79.13;;
7833;SDS011;3962;42.696;23.354;2023-02-16T03:58:34;160.70;;;69.27;;
7833;SDS011;3962;42.696;23.354;2023-02-16T04:01:03;140.85;;;64.20;;
7833;SDS011;3962;42.696;23.354;2023-02-16T04:03:37;148.70;;;69.18;;
7833;SDS011;3962;42.696;23.354;2023-02-16T04:09:02;145.80;;;67.43;;
7833;SDS011;3962;42.696;23.354;2023-02-16T04:11:30;143.20;;;63.85;;
7833;SDS011;3962;42.696;23.354;2023-02-16T04:14:17;137.60;;;63.10;;
7833;SDS011;3962;42.696;23.354;2023-02-16T04:16:54;148.35;;;61.08;;
7833;SDS011;3962;42.696;23.354;2023-02-16T04:19:30;137.18;;;62.83;;
7833;SDS011;3962;42.696;23.354;2023-02-16T04:21:57;130.68;;;58.70;;
7833;SDS011;3962;42.696;23.354;2023-02-16T04:24:27;130.82;;;59.95;;
7833;SDS011;3962;42.696;23.354;2023-02-16T04:27:03;132.93;;;62.78;;
7833;SDS011;3962;42.696;23.354;2023-02-16T04:32:03;136.80;;;65.28;;
7833;SDS011;3962;42.696;23.354;2023-02-16T04:34:34;153.90;;;68.00;;
7833;SDS011;3962;42.696;23.354;2023-02-16T04:37:13;142.32;;;64.60;;
7833;SDS011;3962;42.696;23.354;2023-02-16T04:42:41;128.20;;;63.80;;
7833;SDS011;3962;42.696;23.354;2023-02-16T04:45:14;140.40;;;68.32;;
7833;SDS011;3962;42.696;23.354;2023-02-16T04:53:02;123.80;;;59.70;;
7833;SDS011;3962;42.696;23.354;2023-02-16T04:55:29;144.25;;;65.70;;
7833;SDS011;3962;42.696;23.354;2023-02-16T04:57:56;140.95;;;63.67;;
7833;SDS011;3962;42.696;23.354;2023-02-16T05:03:09;137.95;;;61.60;;
7833;SDS011;3962;42.696;23.354;2023-02-16T05:05:36;136.32;;;69.57;;
7833;SDS011;3962;42.696;23.354;2023-02-16T05:08:03;160.82;;;76.90;;
7833;SDS011;3962;42.696;23.354;2023-02-16T05:10:30;130.82;;;66.60;;
7833;SDS011;3962;42.696;23.354;2023-02-16T05:12:56;141.10;;;66.93;;
7833;SDS011;3962;42.696;23.354;2023-02-16T05:15:41;155.75;;;71.30;;
7833;SDS011;3962;42.696;23.354;2023-02-16T05:18:10;129.68;;;61.08;;
7833;SDS011;3962;42.696;23.354;2023-02-16T05:20:37;124.82;;;60.58;;
7833;SDS011;3962;42.696;23.354;2023-02-16T05:23:21;146.98;;;71.82;;
7833;SDS011;3962;42.696;23.354;2023-02-16T05:25:48;159.05;;;77.25;;
7833;SDS011;3962;42.696;23.354;2023-02-16T05:28:14;144.37;;;70.30;;
7833;SDS011;3962;42.696;23.354;2023-02-16T05:30:41;133.77;;;66.40;;
7833;SDS011;3962;42.696;23.354;2023-02-16T05:33:09;132.13;;;68.80;;
7833;SDS011;3962;42.696;23.354;2023-02-16T05:35:36;139.30;;;63.10;;
7833;SDS011;3962;42.696;23.354;2023-02-16T05:38:03;137.97;;;64.23;;
7833;SDS011;3962;42.696;23.354;2023-02-16T05:40:30;144.03;;;66.47;;
7833;SDS011;3962;42.696;23.354;2023-02-16T05:42:57;143.55;;;67.05;;
7833;SDS011;3962;42.696;23.354;2023-02-16T05:45:24;147.87;;;64.27;;
7833;SDS011;3962;42.696;23.354;2023-02-16T05:47:51;140.50;;;62.77;;
7833;SDS011;3962;42.696;23.354;2023-02-16T05:50:19;136.10;;;61.57;;
7833;SDS011;3962;42.696;23.354;2023-02-16T05:52:46;130.43;;;60.10;;
7833;SDS011;3962;42.696;23.354;2023-02-16T05:55:13;132.97;;;65.13;;
7833;SDS011;3962;42.696;23.354;2023-02-16T05:57:42;125.97;;;60.00;;
7833;SDS011;3962;42.696;23.354;2023-02-16T06:00:10;125.13;;;60.53;;
7833;SDS011;3962;42.696;23.354;2023-02-16T06:02:37;130.60;;;62.00;;
7833;SDS011;3962;42.696;23.354;2023-02-16T06:05:07;138.33;;;63.67;;
7833;SDS011;3962;42.696;23.354;2023-02-16T06:07:35;128.10;;;59.47;;
7833;SDS011;3962;42.696;23.354;2023-02-16T06:10:02;134.53;;;61.57;;
7833;SDS011;3962;42.696;23.354;2023-02-16T06:12:30;149.33;;;67.93;;
7833;SDS011;3962;42.696;23.354;2023-02-16T06:14:58;164.40;;;74.20;;
7833;SDS011;3962;42.696;23.354;2023-02-16T06:17:25;152.47;;;66.57;;
7833;SDS011;3962;42.696;23.354;2023-02-16T06:19:52;154.70;;;69.50;;
7833;SDS011;3962;42.696;23.354;2023-02-16T06:22:20;135.50;;;59.83;;
7833;SDS011;3962;42.696;23.354;2023-02-16T06:24:48;131.40;;;60.43;;
7833;SDS011;3962;42.696;23.354;2023-02-16T06:27:14;129.97;;;59.80;;
7833;SDS011;3962;42.696;23.354;2023-02-16T06:29:41;117.97;;;56.77;;
7833;SDS011;3962;42.696;23.354;2023-02-16T06:32:08;120.40;;;59.57;;
7833;SDS011;3962;42.696;23.354;2023-02-16T06:34:35;119.40;;;58.40;;
7833;SDS011;3962;42.696;23.354;2023-02-16T06:37:02;159.83;;;76.37;;
7833;SDS011;3962;42.696;23.354;2023-02-16T06:39:28;180.47;;;79.77;;
7833;SDS011;3962;42.696;23.354;2023-02-16T06:41:57;180.93;;;80.30;;
7833;SDS011;3962;42.696;23.354;2023-02-16T06:44:24;185.43;;;77.53;;
7833;SDS011;3962;42.696;23.354;2023-02-16T06:46:50;171.33;;;76.10;;
7833;SDS011;3962;42.696;23.354;2023-02-16T06:49:18;187.37;;;82.80;;
7833;SDS011;3962;42.696;23.354;2023-02-16T06:51:46;183.90;;;82.87;;
7833;SDS011;3962;42.696;23.354;2023-02-16T06:54:15;176.30;;;78.80;;
7833;SDS011;3962;42.696;23.354;2023-02-16T06:56:43;176.07;;;81.80;;
7833;SDS011;3962;42.696;23.354;2023-02-16T06:59:11;185.70;;;83.30;;
7833;SDS011;3962;42.696;23.354;2023-02-16T07:01:38;178.90;;;81.80;;
7833;SDS011;3962;42.696;23.354;2023-02-16T07:04:05;166.93;;;76.20;;
7833;SDS011;3962;42.696;23.354;2023-02-16T07:06:34;164.40;;;76.43;;
7833;SDS011;3962;42.696;23.354;2023-02-16T07:09:01;173.17;;;77.10;;
7833;SDS011;3962;42.696;23.354;2023-02-16T07:11:29;177.83;;;80.80;;
7833;SDS011;3962;42.696;23.354;2023-02-16T07:13:55;173.23;;;81.67;;
7833;SDS011;3962;42.696;23.354;2023-02-16T07:16:24;174.13;;;80.53;;
7833;SDS011;3962;42.696;23.354;2023-02-16T07:18:51;180.23;;;82.23;;
7833;SDS011;3962;42.696;23.354;2023-02-16T07:21:18;181.77;;;84.17;;
7833;SDS011;3962;42.696;23.354;2023-02-16T07:23:45;191.90;;;83.47;;
7833;SDS011;3962;42.696;23.354;2023-02-16T07:26:11;186.93;;;85.53;;
7833;SDS011;3962;42.696;23.354;2023-02-16T07:28:38;192.70;;;89.30;;
7833;SDS011;3962;42.696;23.354;2023-02-16T07:31:06;178.53;;;87.63;;
7833;SDS011;3962;42.696;23.354;2023-02-16T07:33:35;196.67;;;92.77;;
7833;SDS011;3962;42.696;23.354;2023-02-16T07:36:03;186.17;;;85.50;;
7833;SDS011;3962;42.696;23.354;2023-02-16T07:38:31;182.53;;;88.00;;
7833;SDS011;3962;42.696;23.354;2023-02-16T07:40:58;185.80;;;89.27;;
7833;SDS011;3962;42.696;23.354;2023-02-16T07:43:25;184.87;;;84.27;;
7833;SDS011;3962;42.696;23.354;2023-02-16T07:45:52;170.47;;;86.87;;
7833;SDS011;3962;42.696;23.354;2023-02-16T07:48:19;167.47;;;89.07;;
7833;SDS011;3962;42.696;23.354;2023-02-16T07:50:48;167.57;;;85.77;;
7833;SDS011;3962;42.696;23.354;2023-02-16T07:53:15;162.57;;;86.20;;
7833;SDS011;3962;42.696;23.354;2023-02-16T07:55:43;171.67;;;90.33;;
7833;SDS011;3962;42.696;23.354;2023-02-16T07:58:11;188.13;;;93.50;;
7833;SDS011;3962;42.696;23.354;2023-02-16T08:00:51;187.00;;;92.07;;
7833;SDS011;3962;42.696;23.354;2023-02-16T08:03:19;173.27;;;80.70;;
7833;SDS011;3962;42.696;23.354;2023-02-16T08:05:47;159.73;;;72.90;;
7833;SDS011;3962;42.696;23.354;2023-02-16T08:08:14;147.27;;;72.43;;
7833;SDS011;3962;42.696;23.354;2023-02-16T08:10:41;153.50;;;70.83;;
7833;SDS011;3962;42.696;23.354;2023-02-16T08:13:08;140.30;;;68.47;;
7833;SDS011;3962;42.696;23.354;2023-02-16T08:15:35;136.30;;;68.10;;
7833;SDS011;3962;42.696;23.354;2023-02-16T08:18:01;139.07;;;66.53;;
7833;SDS011;3962;42.696;23.354;2023-02-16T08:20:28;133.93;;;65.23;;
7833;SDS011;3962;42.696;23.354;2023-02-16T08:22:56;125.43;;;61.03;;
7833;SDS011;3962;42.696;23.354;2023-02-16T08:25:23;140.27;;;64.77;;
7833;SDS011;3962;42.696;23.354;2023-02-16T08:27:50;124.00;;;61.40;;
7833;SDS011;3962;42.696;23.354;2023-02-16T08:30:17;112.77;;;56.83;;
7833;SDS011;3962;42.696;23.354;2023-02-16T08:32:44;108.33;;;55.13;;
7833;SDS011;3962;42.696;23.354;2023-02-16T08:35:14;106.13;;;50.53;;
7833;SDS011;3962;42.696;23.354;2023-02-16T08:37:42;101.47;;;50.77;;
7833;SDS011;3962;42.696;23.354;2023-02-16T08:40:10;89.20;;;48.97;;
7833;SDS011;3962;42.696;23.354;2023-02-16T08:42:37;96.47;;;48.27;;
7833;SDS011;3962;42.696;23.354;2023-02-16T08:45:04;98.10;;;48.23;;
7833;SDS011;3962;42.696;23.354;2023-02-16T08:47:31;83.43;;;43.30;;
7833;SDS011;3962;42.696;23.354;2023-02-16T08:50:00;88.23;;;46.70;;
7833;SDS011;3962;42.696;23.354;2023-02-16T08:52:27;89.47;;;48.00;;
7833;SDS011;3962;42.696;23.354;2023-02-16T08:54:54;84.77;;;45.83;;
7833;SDS011;3962;42.696;23.354;2023-02-16T08:57:22;85.40;;;44.07;;
7833;SDS011;3962;42.696;23.354;2023-02-16T08:59:49;81.23;;;42.07;;
7833;SDS011;3962;42.696;23.354;2023-02-16T09:02:36;75.37;;;42.40;;
7833;SDS011;3962;42.696;23.354;2023-02-16T09:05:03;85.67;;;45.03;;
7833;SDS011;3962;42.696;23.354;2023-02-16T09:07:30;75.80;;;40.17;;
7833;SDS011;3962;42.696;23.354;2023-02-16T09:09:59;77.73;;;43.27;;
7833;SDS011;3962;42.696;23.354;2023-02-16T09:12:27;91.93;;;44.37;;
7833;SDS011;3962;42.696;23.354;2023-02-16T09:14:56;75.97;;;42.80;;
7833;SDS011;3962;42.696;23.354;2023-02-16T09:17:23;75.93;;;42.17;;
7833;SDS011;3962;42.696;23.354;2023-02-16T09:19:52;76.87;;;42.17;;
7833;SDS011;3962;42.696;23.354;2023-02-16T09:22:18;83.17;;;42.47;;
7833;SDS011;3962;42.696;23.354;2023-02-16T09:24:45;82.33;;;42.33;;
7833;SDS011;3962;42.696;23.354;2023-02-16T09:27:13;91.00;;;43.00;;
7833;SDS011;3962;42.696;23.354;2023-02-16T09:29:41;76.50;;;41.37;;
7833;SDS011;3962;42.696;23.354;2023-02-16T09:32:08;77.07;;;43.17;;
7833;SDS011;3962;42.696;23.354;2023-02-16T09:34:36;68.13;;;35.93;;
7833;SDS011;3962;42.696;23.354;2023-02-16T09:37:03;69.20;;;39.43;;
7833;SDS011;3962;42.696;23.354;2023-02-16T09:39:30;73.20;;;39.40;;
7833;SDS011;3962;42.696;23.354;2023-02-16T09:42:00;73.73;;;39.33;;
7833;SDS011;3962;42.696;23.354;2023-02-16T09:44:37;69.73;;;39.97;;
7833;SDS011;3962;42.696;23.354;2023-02-16T09:47:14;69.77;;;38.30;;
7833;SDS011;3962;42.696;23.354;2023-02-16T09:49:48;70.70;;;39.80;;
7833;SDS011;3962;42.696;23.354;2023-02-16T09:52:17;70.87;;;40.40;;
7833;SDS011;3962;42.696;23.354;2023-02-16T09:54:51;66.30;;;37.97;;
7833;SDS011;3962;42.696;23.354;2023-02-16T09:57:21;61.13;;;35.93;;
7833;SDS011;3962;42.696;23.354;2023-02-16T10:00:03;69.30;;;36.80;;
7833;SDS011;3962;42.696;23.354;2023-02-16T10:02:36;68.83;;;39.63;;
7833;SDS011;3962;42.696;23.354;2023-02-16T10:05:13;66.40;;;37.13;;
7833;SDS011;3962;42.696;23.354;2023-02-16T10:07:47;67.30;;;39.30;;
7833;SDS011;3962;42.696;23.354;2023-02-16T10:10:22;72.67;;;38.00;;
7833;SDS011;3962;42.696;23.354;2023-02-16T10:12:52;80.40;;;41.13;;
7833;SDS011;3962;42.696;23.354;2023-02-16T10:15:23;74.37;;;38.50;;
7833;SDS011;3962;42.696;23.354;2023-02-16T10:17:53;68.20;;;37.33;;
7833;SDS011;3962;42.696;23.354;2023-02-16T10:20:24;69.87;;;37.73;;
7833;SDS011;3962;42.696;23.354;2023-02-16T10:22:58;68.00;;;37.67;;
7833;SDS011;3962;42.696;23.354;2023-02-16T10:25:33;64.70;;;36.70;;
7833;SDS011;3962;42.696;23.354;2023-02-16T10:28:09;74.53;;;39.20;;
7833;SDS011;3962;42.696;23.354;2023-02-16T10:30:43;69.53;;;37.87;;
7833;SDS011;3962;42.696;23.354;2023-02-16T10:33:16;74.73;;;38.60;;
7833;SDS011;3962;42.696;23.354;2023-02-16T10:35:51;68.37;;;36.80;;
7833;SDS011;3962;42.696;23.354;2023-02-16T10:38:26;70.80;;;38.10;;
7833;SDS011;3962;42.696;23.354;2023-02-16T10:41:00;76.33;;;38.93;;
7833;SDS011;3962;42.696;23.354;2023-02-16T10:43:36;71.00;;;36.57;;
7833;SDS011;3962;42.696;23.354;2023-02-16T10:46:10;68.77;;;38.43;;
7833;SDS011;3962;42.696;23.354;2023-02-16T10:48:40;71.27;;;38.43;;
7833;SDS011;3962;42.696;23.354;2023-02-16T10:51:09;61.87;;;34.73;;
7833;SDS011;3962;42.696;23.354;2023-02-16T10:53:40;69.23;;;35.23;;
7833;SDS011;3962;42.696;23.354;2023-02-16T10:56:32;246.70;;;123.27;;
7833;SDS011;3962;42.696;23.354;2023-02-16T10:59:12;79.47;;;45.20;;
7833;SDS011;3962;42.696;23.354;2023-02-16T11:01:44;73.30;;;38.23;;
7833;SDS011;3962;42.696;23.354;2023-02-16T11:07:07;74.57;;;35.77;;
7833;SDS011;3962;42.696;23.354;2023-02-16T11:09:35;285.47;;;106.70;;
7833;SDS011;3962;42.696;23.354;2023-02-16T11:12:12;68.23;;;34.90;;
7833;SDS011;3962;42.696;23.354;2023-02-16T11:14:45;79.13;;;36.23;;
7833;SDS011;3962;42.696;23.354;2023-02-16T11:17:15;174.30;;;58.43;;
7833;SDS011;3962;42.696;23.354;2023-02-16T11:19:49;83.07;;;37.77;;
7833;SDS011;3962;42.696;23.354;2023-02-16T11:22:23;66.73;;;35.00;;
7833;SDS011;3962;42.696;23.354;2023-02-16T11:24:53;69.13;;;33.83;;
7833;SDS011;3962;42.696;23.354;2023-02-16T11:27:22;110.57;;;44.77;;
7833;SDS011;3962;42.696;23.354;2023-02-16T11:29:50;86.07;;;39.47;;
7833;SDS011;3962;42.696;23.354;2023-02-16T11:32:47;71.30;;;34.17;;
7833;SDS011;3962;42.696;23.354;2023-02-16T11:35:15;63.10;;;33.77;;
7833;SDS011;3962;42.696;23.354;2023-02-16T11:37:43;57.37;;;32.23;;
7833;SDS011;3962;42.696;23.354;2023-02-16T11:40:17;55.50;;;31.87;;
7833;SDS011;3962;42.696;23.354;2023-02-16T11:42:46;62.67;;;32.87;;
7833;SDS011;3962;42.696;23.354;2023-02-16T11:45:26;60.63;;;31.13;;
7833;SDS011;3962;42.696;23.354;2023-02-16T11:47:56;60.20;;;31.10;;
7833;SDS011;3962;42.696;23.354;2023-02-16T11:50:26;58.33;;;31.77;;
7833;SDS011;3962;42.696;23.354;2023-02-16T11:52:56;67.37;;;31.23;;
7833;SDS011;3962;42.696;23.354;2023-02-16T11:55:39;54.43;;;30.53;;
7833;SDS011;3962;42.696;23.354;2023-02-16T11:58:15;52.37;;;30.57;;
7833;SDS011;3962;42.696;23.354;2023-02-16T12:00:52;52.80;;;29.83;;
7833;SDS011;3962;42.696;23.354;2023-02-16T12:03:38;62.80;;;30.93;;
7833;SDS011;3962;42.696;23.354;2023-02-16T12:06:32;60.97;;;30.43;;
7833;SDS011;3962;42.696;23.354;2023-02-16T12:09:17;60.20;;;29.70;;
7833;SDS011;3962;42.696;23.354;2023-02-16T12:11:53;54.33;;;29.93;;
7833;SDS011;3962;42.696;23.354;2023-02-16T12:14:33;53.20;;;28.40;;
7833;SDS011;3962;42.696;23.354;2023-02-16T12:17:23;50.90;;;28.47;;
7833;SDS011;3962;42.696;23.354;2023-02-16T12:20:02;56.50;;;28.17;;
7833;SDS011;3962;42.696;23.354;2023-02-16T12:22:40;49.60;;;26.33;;
7833;SDS011;3962;42.696;23.354;2023-02-16T12:25:19;46.77;;;27.93;;
7833;SDS011;3962;42.696;23.354;2023-02-16T12:27:57;52.80;;;27.37;;
7833;SDS011;3962;42.696;23.354;2023-02-16T12:30:35;49.47;;;27.43;;
7833;SDS011;3962;42.696;23.354;2023-02-16T12:33:30;51.13;;;27.40;;
7833;SDS011;3962;42.696;23.354;2023-02-16T12:36:10;49.67;;;25.90;;
7833;SDS011;3962;42.696;23.354;2023-02-16T12:38:58;55.73;;;27.17;;
7833;SDS011;3962;42.696;23.354;2023-02-16T12:41:36;48.50;;;25.83;;
7833;SDS011;3962;42.696;23.354;2023-02-16T12:44:14;56.30;;;27.43;;
7833;SDS011;3962;42.696;23.354;2023-02-16T12:46:44;55.20;;;27.53;;
7833;SDS011;3962;42.696;23.354;2023-02-16T12:49:15;48.90;;;27.93;;
7833;SDS011;3962;42.696;23.354;2023-02-16T12:51:51;58.97;;;27.60;;
7833;SDS011;3962;42.696;23.354;2023-02-16T12:54:22;55.37;;;27.03;;
7833;SDS011;3962;42.696;23.354;2023-02-16T12:56:54;46.70;;;26.13;;
7833;SDS011;3962;42.696;23.354;2023-02-16T12:59:30;45.73;;;26.20;;
7833;SDS011;3962;42.696;23.354;2023-02-16T13:02:03;53.70;;;28.13;;
7833;SDS011;3962;42.696;23.354;2023-02-16T13:04:39;47.37;;;27.33;;
7833;SDS011;3962;42.696;23.354;2023-02-16T13:07:12;49.40;;;26.60;;
7833;SDS011;3962;42.696;23.354;2023-02-16T13:09:45;43.57;;;24.23;;
7833;SDS011;3962;42.696;23.354;2023-02-16T13:12:22;43.03;;;24.93;;
7833;SDS011;3962;42.696;23.354;2023-02-16T13:14:55;41.57;;;22.63;;
7833;SDS011;3962;42.696;23.354;2023-02-16T13:17:30;54.47;;;27.73;;
7833;SDS011;3962;42.696;23.354;2023-02-16T13:19:59;50.60;;;25.83;;
7833;SDS011;3962;42.696;23.354;2023-02-16T13:22:33;44.50;;;26.20;;
7833;SDS011;3962;42.696;23.354;2023-02-16T13:25:19;49.73;;;27.83;;
7833;SDS011;3962;42.696;23.354;2023-02-16T13:28:04;52.80;;;27.17;;
7833;SDS011;3962;42.696;23.354;2023-02-16T13:30:55;65.70;;;29.93;;
7833;SDS011;3962;42.696;23.354;2023-02-16T13:36:36;57.50;;;28.67;;
7833;SDS011;3962;42.696;23.354;2023-02-16T13:39:33;49.97;;;28.73;;
7833;SDS011;3962;42.696;23.354;2023-02-16T13:45:10;61.07;;;29.43;;
7833;SDS011;3962;42.696;23.354;2023-02-16T13:47:41;55.73;;;28.60;;
7833;SDS011;3962;42.696;23.354;2023-02-16T13:50:23;53.63;;;29.03;;
7833;SDS011;3962;42.696;23.354;2023-02-16T13:52:53;55.07;;;29.30;;
7833;SDS011;3962;42.696;23.354;2023-02-16T13:55:25;60.13;;;30.57;;
7833;SDS011;3962;42.696;23.354;2023-02-16T13:58:00;49.43;;;27.00;;
7833;SDS011;3962;42.696;23.354;2023-02-16T14:00:31;54.00;;;28.70;;
7833;SDS011;3962;42.696;23.354;2023-02-16T14:03:02;55.10;;;29.30;;
7833;SDS011;3962;42.696;23.354;2023-02-16T14:05:36;49.17;;;28.00;;
7833;SDS011;3962;42.696;23.354;2023-02-16T14:08:09;49.17;;;27.40;;
7833;SDS011;3962;42.696;23.354;2023-02-16T14:11:00;50.17;;;27.60;;
7833;SDS011;3962;42.696;23.354;2023-02-16T14:13:30;44.93;;;27.67;;
7833;SDS011;3962;42.696;23.354;2023-02-16T14:16:00;53.07;;;28.70;;
7833;SDS011;3962;42.696;23.354;2023-02-16T14:18:33;55.80;;;29.53;;
7833;SDS011;3962;42.696;23.354;2023-02-16T14:21:15;57.00;;;30.33;;
7833;SDS011;3962;42.696;23.354;2023-02-16T14:23:44;53.73;;;29.70;;
7833;SDS011;3962;42.696;23.354;2023-02-16T14:26:22;51.07;;;27.50;;
7833;SDS011;3962;42.696;23.354;2023-02-16T14:28:55;62.80;;;30.97;;
7833;SDS011;3962;42.696;23.354;2023-02-16T14:31:28;60.30;;;30.10;;
7833;SDS011;3962;42.696;23.354;2023-02-16T14:34:00;57.43;;;31.03;;
7833;SDS011;3962;42.696;23.354;2023-02-16T14:36:30;65.83;;;31.07;;
7833;SDS011;3962;42.696;23.354;2023-02-16T14:38:58;58.87;;;29.53;;
7833;SDS011;3962;42.696;23.354;2023-02-16T14:41:28;51.03;;;27.97;;
7833;SDS011;3962;42.696;23.354;2023-02-16T14:44:10;48.63;;;27.77;;
7833;SDS011;3962;42.696;23.354;2023-02-16T14:46:54;58.80;;;31.00;;
7833;SDS011;3962;42.696;23.354;2023-02-16T14:49:43;63.27;;;32.10;;
7833;SDS011;3962;42.696;23.354;2023-02-16T14:52:43;52.33;;;27.73;;
7833;SDS011;3962;42.696;23.354;2023-02-16T14:55:34;53.20;;;28.97;;
7833;SDS011;3962;42.696;23.354;2023-02-16T14:58:17;51.83;;;27.90;;
7833;SDS011;3962;42.696;23.354;2023-02-16T15:00:52;50.07;;;27.30;;
7833;SDS011;3962;42.696;23.354;2023-02-16T15:03:37;49.57;;;27.37;;
7833;SDS011;3962;42.696;23.354;2023-02-16T15:06:15;44.83;;;25.63;;
7833;SDS011;3962;42.696;23.354;2023-02-16T15:08:46;50.90;;;26.80;;
7833;SDS011;3962;42.696;23.354;2023-02-16T15:11:21;48.23;;;26.87;;
7833;SDS011;3962;42.696;23.354;2023-02-16T15:13:54;55.93;;;28.33;;
7833;SDS011;3962;42.696;23.354;2023-02-16T15:16:28;46.93;;;26.30;;
7833;SDS011;3962;42.696;23.354;2023-02-16T15:18:57;54.50;;;27.07;;
7833;SDS011;3962;42.696;23.354;2023-02-16T15:21:28;50.67;;;26.83;;
7833;SDS011;3962;42.696;23.354;2023-02-16T15:23:56;55.63;;;27.33;;
7833;SDS011;3962;42.696;23.354;2023-02-16T15:26:25;55.43;;;29.17;;
7833;SDS011;3962;42.696;23.354;2023-02-16T15:28:55;55.67;;;27.80;;
7833;SDS011;3962;42.696;23.354;2023-02-16T15:31:24;58.40;;;27.87;;
7833;SDS011;3962;42.696;23.354;2023-02-16T15:33:56;50.03;;;27.93;;
7833;SDS011;3962;42.696;23.354;2023-02-16T15:36:29;60.03;;;30.60;;
7833;SDS011;3962;42.696;23.354;2023-02-16T15:39:00;54.43;;;27.37;;
7833;SDS011;3962;42.696;23.354;2023-02-16T15:41:30;52.43;;;27.13;;
7833;SDS011;3962;42.696;23.354;2023-02-16T15:44:00;49.97;;;27.93;;
7833;SDS011;3962;42.696;23.354;2023-02-16T15:46:30;52.63;;;29.20;;
7833;SDS011;3962;42.696;23.354;2023-02-16T15:48:58;60.97;;;30.47;;
7833;SDS011;3962;42.696;23.354;2023-02-16T15:51:35;61.07;;;32.37;;
7833;SDS011;3962;42.696;23.354;2023-02-16T15:54:04;93.13;;;38.80;;
7833;SDS011;3962;42.696;23.354;2023-02-16T15:56:36;99.23;;;44.03;;
7833;SDS011;3962;42.696;23.354;2023-02-16T15:59:16;84.83;;;37.87;;
7833;SDS011;3962;42.696;23.354;2023-02-16T16:01:58;72.20;;;33.10;;
7833;SDS011;3962;42.696;23.354;2023-02-16T16:04:26;65.90;;;33.93;;
7833;SDS011;3962;42.696;23.354;2023-02-16T16:06:55;68.17;;;33.73;;
7833;SDS011;3962;42.696;23.354;2023-02-16T16:09:24;72.53;;;33.87;;
7833;SDS011;3962;42.696;23.354;2023-02-16T16:11:54;70.17;;;35.93;;
7833;SDS011;3962;42.696;23.354;2023-02-16T16:14:24;67.07;;;34.73;;
7833;SDS011;3962;42.696;23.354;2023-02-16T16:16:52;69.90;;;34.50;;
7833;SDS011;3962;42.696;23.354;2023-02-16T16:19:20;73.57;;;35.00;;
7833;SDS011;3962;42.696;23.354;2023-02-16T16:21:51;70.87;;;33.57;;
7833;SDS011;3962;42.696;23.354;2023-02-16T16:24:26;61.53;;;34.00;;
7833;SDS011;3962;42.696;23.354;2023-02-16T16:27:00;76.57;;;32.57;;
7833;SDS011;3962;42.696;23.354;2023-02-16T16:29:32;66.97;;;33.90;;
7833;SDS011;3962;42.696;23.354;2023-02-16T16:32:02;76.30;;;35.43;;
7833;SDS011;3962;42.696;23.354;2023-02-16T16:34:35;71.53;;;35.27;;
7833;SDS011;3962;42.696;23.354;2023-02-16T16:37:04;67.37;;;35.40;;
7833;SDS011;3962;42.696;23.354;2023-02-16T16:39:32;94.87;;;41.03;;
7833;SDS011;3962;42.696;23.354;2023-02-16T16:42:08;104.13;;;46.90;;